createdAt,value
2022-12-25T00:01:45.544Z,2.69
2022-12-25T00:04:13.287Z,2.72
2022-12-25T00:06:40.668Z,2.61
2022-12-25T00:09:08.160Z,2.49
2022-12-25T00:11:37.235Z,2.46
2022-12-25T00:14:05.920Z,2.32
2022-12-25T00:16:33.431Z,2.36
2022-12-25T00:19:01.443Z,1.91
2022-12-25T00:21:28.869Z,2.14
2022-12-25T00:23:58.455Z,2.06
2022-12-25T00:26:27.339Z,2.07
2022-12-25T00:28:56.569Z,2.17
2022-12-25T00:31:24.673Z,2.17
2022-12-25T00:33:54.068Z,2.13
2022-12-25T00:36:22.811Z,1.95
2022-12-25T00:38:50.259Z,2.05
2022-12-25T00:41:41.208Z,2.33
2022-12-25T00:44:10.254Z,2.25
2022-12-25T00:46:37.779Z,2.32
2022-12-25T00:49:05.733Z,2.41
2022-12-25T00:51:33.729Z,2.45
2022-12-25T00:54:01.918Z,2.41
2022-12-25T00:56:29.264Z,2.52
2022-12-25T00:58:56.730Z,2.55
2022-12-25T01:01:24.611Z,2.68
2022-12-25T01:03:52.107Z,2.85
2022-12-25T01:06:19.648Z,2.85
2022-12-25T01:09:05.884Z,2.81
2022-12-25T01:11:33.595Z,2.85
2022-12-25T01:14:01.548Z,2.98
2022-12-25T01:16:29.309Z,3.04
2022-12-25T01:18:56.806Z,3.02
2022-12-25T01:21:24.692Z,3.02
2022-12-25T01:23:53.339Z,2.98
2022-12-25T01:26:25.195Z,2.91
2022-12-25T01:28:53.567Z,2.95
2022-12-25T01:31:22.872Z,3.00
2022-12-25T01:33:50.670Z,3.05
2022-12-25T01:36:26.083Z,3.09
2022-12-25T01:38:54.707Z,3.14
2022-12-25T01:41:24.696Z,3.22
2022-12-25T01:44:15.342Z,3.10
2022-12-25T01:46:44.274Z,3.14
2022-12-25T01:49:15.319Z,3.15
2022-12-25T01:51:50.470Z,3.39
2022-12-25T01:54:27.194Z,3.49
2022-12-25T01:56:59.964Z,3.57
2022-12-25T01:59:28.795Z,3.70
2022-12-25T02:01:57.285Z,3.74
2022-12-25T02:04:38.957Z,3.73
2022-12-25T02:07:22.150Z,3.83
2022-12-25T02:09:51.284Z,3.91
2022-12-25T02:12:22.343Z,4.09
2022-12-25T02:14:52.787Z,4.28
2022-12-25T02:18:07.451Z,4.51
2022-12-25T02:20:36.189Z,4.68
2022-12-25T02:23:28.028Z,4.66
2022-12-25T02:26:17.554Z,4.86
2022-12-25T02:28:56.266Z,5.10
2022-12-25T02:31:48.341Z,4.94
2022-12-25T02:34:51.523Z,5.07
2022-12-25T02:37:27.676Z,5.14
2022-12-25T02:40:04.460Z,5.27
2022-12-25T02:43:06.034Z,5.36
2022-12-25T02:46:05.230Z,5.19
2022-12-25T02:48:55.982Z,5.05
2022-12-25T02:51:45.023Z,5.08
2022-12-25T02:54:36.312Z,5.05
2022-12-25T02:57:28.340Z,5.00
2022-12-25T03:00:17.857Z,4.96
2022-12-25T03:03:06.653Z,4.78
2022-12-25T03:05:57.219Z,4.73
2022-12-25T03:08:34.096Z,4.57
2022-12-25T03:11:22.989Z,4.27
2022-12-25T03:13:54.038Z,4.26
2022-12-25T03:16:41.872Z,4.28
2022-12-25T03:19:27.728Z,3.57
2022-12-25T03:22:15.533Z,3.73
2022-12-25T03:25:01.843Z,3.76
2022-12-25T03:27:33.946Z,3.66
2022-12-25T03:30:20.619Z,3.69
2022-12-25T03:33:17.963Z,3.65
2022-12-25T03:36:05.714Z,3.61
2022-12-25T03:38:48.237Z,3.59
2022-12-25T03:41:40.062Z,3.46
2022-12-25T03:44:53.195Z,3.37
2022-12-25T03:47:35.456Z,3.31
2022-12-25T03:50:31.265Z,3.21
2022-12-25T03:53:20.379Z,3.14
2022-12-25T03:56:08.491Z,3.18
2022-12-25T03:59:08.257Z,3.10
2022-12-25T04:01:54.722Z,3.17
2022-12-25T04:04:40.911Z,2.99
2022-12-25T04:07:27.022Z,2.92
2022-12-25T04:10:14.794Z,2.63
2022-12-25T04:13:03.509Z,2.79
2022-12-25T04:15:50.295Z,2.83
2022-12-25T04:18:36.360Z,2.90
2022-12-25T04:21:22.516Z,2.94
2022-12-25T04:24:08.687Z,2.98
2022-12-25T04:26:54.820Z,2.85
2022-12-25T04:29:40.739Z,2.72
2022-12-25T04:32:26.862Z,2.86
2022-12-25T04:35:12.591Z,2.72
2022-12-25T04:37:40.212Z,2.70
2022-12-25T04:40:08.217Z,2.59
2022-12-25T04:42:35.466Z,2.59
2022-12-25T04:45:03.330Z,2.55
2022-12-25T04:47:30.694Z,2.61
2022-12-25T04:49:58.128Z,2.59
2022-12-25T04:52:25.759Z,2.50
2022-12-25T04:54:54.921Z,2.34
2022-12-25T04:57:22.332Z,2.18
2022-12-25T04:59:49.967Z,2.18
2022-12-25T05:02:17.294Z,2.28
2022-12-25T05:04:44.709Z,2.19
2022-12-25T05:07:12.376Z,2.19
2022-12-25T05:09:42.467Z,1.95
2022-12-25T05:12:11.326Z,2.10
2022-12-25T05:14:40.290Z,1.90
2022-12-25T05:17:08.189Z,2.06
2022-12-25T05:19:35.932Z,1.96
2022-12-25T05:22:03.789Z,2.02
2022-12-25T05:24:31.225Z,1.99
2022-12-25T05:26:58.761Z,2.00
2022-12-25T05:29:26.486Z,1.86
2022-12-25T05:31:53.841Z,1.82
2022-12-25T05:34:21.360Z,1.70
2022-12-25T05:36:49.088Z,1.82
2022-12-25T05:39:16.444Z,1.87
2022-12-25T05:41:43.814Z,1.76
2022-12-25T05:44:11.402Z,1.91
2022-12-25T05:46:38.850Z,1.65
2022-12-25T05:49:06.297Z,1.56
2022-12-25T05:51:34.206Z,1.39
2022-12-25T05:54:01.570Z,1.52
2022-12-25T05:56:28.956Z,1.69
2022-12-25T05:58:56.940Z,1.53
2022-12-25T06:01:26.604Z,1.52
2022-12-25T06:03:54.569Z,1.48
2022-12-25T06:06:22.297Z,1.55
2022-12-25T06:08:49.709Z,1.78
2022-12-25T06:11:17.454Z,1.47
2022-12-25T06:13:44.995Z,1.62
2022-12-25T06:16:13.103Z,1.38
2022-12-25T06:18:44.509Z,1.65
2022-12-25T06:21:13.782Z,1.75
2022-12-25T06:23:42.523Z,1.73
2022-12-25T06:26:12.758Z,1.80
2022-12-25T06:28:40.567Z,1.29
2022-12-25T06:31:17.739Z,1.23
2022-12-25T06:33:46.028Z,1.53
2022-12-25T06:36:16.647Z,1.98
2022-12-25T06:38:44.118Z,1.98
2022-12-25T06:41:17.038Z,2.34
2022-12-25T06:43:49.514Z,2.78
2022-12-25T06:46:17.704Z,3.01
2022-12-25T06:48:49.584Z,3.64
2022-12-25T06:51:22.512Z,4.05
2022-12-25T06:53:51.826Z,4.23
2022-12-25T06:56:24.307Z,4.41
2022-12-25T06:58:55.704Z,4.48
2022-12-25T07:01:28.569Z,4.55
2022-12-25T07:04:03.101Z,4.40
2022-12-25T07:06:30.767Z,4.68
2022-12-25T07:08:58.652Z,4.69
2022-12-25T07:11:27.019Z,4.61
2022-12-25T07:13:55.122Z,4.91
2022-12-25T07:16:22.821Z,4.63
2022-12-25T07:18:50.151Z,5.00
2022-12-25T07:21:19.229Z,5.23
2022-12-25T07:23:48.480Z,5.47
2022-12-25T07:26:17.504Z,5.49
2022-12-25T07:28:44.896Z,5.60
2022-12-25T07:31:17.957Z,5.80
2022-12-25T07:33:45.723Z,6.07
2022-12-25T07:36:16.394Z,6.24
2022-12-25T07:38:48.105Z,6.38
2022-12-25T07:41:15.788Z,6.61
2022-12-25T07:43:43.359Z,6.94
2022-12-25T07:46:11.444Z,7.28
2022-12-25T07:48:40.601Z,7.65
2022-12-25T07:51:12.359Z,8.02
2022-12-25T07:53:40.860Z,8.22
2022-12-25T07:56:16.937Z,8.44
2022-12-25T07:58:45.872Z,8.65
2022-12-25T08:01:20.435Z,8.42
2022-12-25T08:03:56.195Z,8.78
2022-12-25T08:06:29.824Z,9.05
2022-12-25T08:09:03.554Z,9.33
2022-12-25T08:11:35.931Z,9.26
2022-12-25T08:14:08.464Z,9.45
2022-12-25T08:16:36.676Z,9.48
2022-12-25T08:19:04.479Z,9.51
2022-12-25T08:21:31.893Z,9.83
2022-12-25T08:23:59.208Z,9.88
2022-12-25T08:26:26.863Z,9.83
2022-12-25T08:39:46.678Z,10.25
2022-12-25T08:42:15.472Z,10.25
2022-12-25T08:44:42.855Z,10.12
2022-12-25T08:47:10.381Z,10.08
2022-12-25T08:49:38.144Z,10.27
2022-12-25T08:52:05.755Z,10.94
2022-12-25T08:54:34.979Z,11.43
2022-12-25T08:57:03.898Z,11.29
2022-12-25T08:59:31.727Z,11.33
2022-12-25T09:01:59.337Z,11.47
2022-12-25T09:04:27.669Z,11.17
2022-12-25T09:06:55.156Z,11.15
2022-12-25T09:09:29.850Z,11.06
2022-12-25T09:11:57.580Z,11.30
2022-12-25T09:14:25.031Z,10.92
2022-12-25T09:16:52.257Z,10.86
2022-12-25T09:19:20.155Z,11.52
2022-12-25T09:21:47.875Z,12.04
2022-12-25T09:24:15.221Z,11.69
2022-12-25T09:26:42.842Z,11.70
2022-12-25T09:29:10.252Z,11.63
2022-12-25T09:31:37.981Z,11.51
2022-12-25T09:34:06.050Z,11.82
2022-12-25T09:36:33.472Z,11.83
2022-12-25T09:39:00.907Z,12.40
2022-12-25T09:41:31.684Z,12.33
2022-12-25T09:44:02.585Z,12.40
2022-12-25T09:46:39.073Z,12.74
2022-12-25T09:49:40.009Z,12.79
2022-12-25T09:52:33.060Z,13.05
2022-12-25T09:55:20.880Z,13.32
2022-12-25T09:57:58.127Z,13.59
2022-12-25T10:00:32.304Z,13.36
2022-12-25T10:03:27.069Z,12.80
2022-12-25T10:06:11.435Z,12.30
2022-12-25T10:09:07.716Z,13.37
2022-12-25T10:12:06.876Z,13.44
2022-12-25T10:14:56.436Z,13.76
2022-12-25T10:17:36.776Z,13.62
2022-12-25T10:20:08.547Z,14.08
2022-12-25T10:22:42.663Z,14.14
2022-12-25T10:25:18.005Z,14.30
2022-12-25T10:27:53.110Z,13.53
2022-12-25T10:30:25.869Z,13.50
2022-12-25T10:32:57.244Z,13.30
2022-12-25T10:35:28.425Z,13.07
2022-12-25T10:38:09.738Z,13.79
2022-12-25T10:40:52.253Z,13.84
2022-12-25T10:43:47.539Z,13.18
2022-12-25T10:46:16.949Z,13.18
2022-12-25T10:48:59.168Z,13.48
2022-12-25T10:51:44.943Z,13.99
2022-12-25T10:54:35.876Z,14.02
2022-12-25T10:57:17.221Z,13.92
2022-12-25T10:59:52.106Z,14.13
2022-12-25T11:02:28.858Z,14.26
2022-12-25T11:05:02.617Z,14.76
2022-12-25T11:07:32.096Z,14.57
2022-12-25T11:10:05.077Z,14.82
2022-12-25T11:12:42.284Z,15.37
2022-12-25T11:15:43.260Z,15.06
2022-12-25T11:18:21.902Z,14.73
2022-12-25T11:20:58.254Z,15.15
2022-12-25T11:23:29.464Z,14.88
2022-12-25T11:25:57.709Z,14.90
2022-12-25T11:28:26.506Z,16.04
2022-12-25T11:31:09.475Z,15.69
2022-12-25T11:33:42.714Z,15.05
2022-12-25T11:36:20.183Z,14.79
2022-12-25T11:38:48.091Z,14.95
2022-12-25T11:41:20.765Z,15.75
2022-12-25T11:43:59.453Z,15.70
2022-12-25T11:46:35.486Z,15.52
2022-12-25T11:49:08.577Z,15.70
2022-12-25T11:51:39.801Z,16.06
2022-12-25T11:54:19.401Z,15.79
2022-12-25T11:56:47.088Z,16.15
2022-12-25T11:59:42.791Z,15.76
2022-12-25T12:02:40.195Z,16.23
2022-12-25T12:05:16.290Z,16.68
2022-12-25T12:08:05.170Z,16.56
2022-12-25T12:11:16.495Z,16.67
2022-12-25T12:14:06.961Z,16.47
2022-12-25T12:16:35.709Z,16.75
2022-12-25T12:19:29.366Z,16.65
2022-12-25T12:22:00.879Z,16.75
2022-12-25T12:24:53.345Z,17.56
2022-12-25T12:27:31.209Z,18.26
2022-12-25T12:30:00.224Z,18.00
2022-12-25T12:32:43.183Z,18.45
2022-12-25T12:35:15.732Z,18.63
2022-12-25T12:37:47.245Z,18.63
2022-12-25T12:40:25.804Z,17.96
2022-12-25T12:42:55.049Z,18.19
2022-12-25T12:45:28.648Z,18.40
2022-12-25T12:47:57.129Z,18.08
2022-12-25T12:50:28.171Z,18.79
2022-12-25T12:52:56.417Z,19.00
2022-12-25T12:55:34.887Z,19.76
2022-12-25T12:58:03.676Z,20.12
2022-12-25T13:00:49.163Z,19.06
2022-12-25T13:03:45.359Z,20.34
2022-12-25T13:06:59.026Z,20.45
2022-12-25T13:09:41.063Z,21.09
2022-12-25T13:12:12.212Z,20.27
2022-12-25T13:14:46.266Z,20.48
2022-12-25T13:17:18.652Z,20.66
2022-12-25T13:19:48.430Z,21.04
2022-12-25T13:22:50.667Z,20.19
2022-12-25T13:25:24.294Z,21.68
2022-12-25T13:27:56.979Z,20.26
2022-12-25T13:30:25.820Z,17.78
2022-12-25T13:32:53.670Z,16.70
2022-12-25T13:35:23.262Z,15.94
2022-12-25T13:37:51.490Z,15.21
2022-12-25T13:40:26.400Z,14.29
2022-12-25T13:42:59.963Z,13.57
2022-12-25T13:45:31.476Z,13.44
2022-12-25T13:48:14.913Z,13.17
2022-12-25T13:50:48.641Z,13.00
2022-12-25T13:53:17.988Z,12.93
2022-12-25T13:55:52.766Z,12.93
2022-12-25T13:58:31.013Z,12.45
2022-12-25T14:01:00.311Z,12.60
2022-12-25T14:03:41.752Z,12.36
2022-12-25T14:06:26.231Z,12.35
2022-12-25T14:08:58.881Z,12.51
2022-12-25T14:11:33.613Z,12.52
2022-12-25T14:14:14.993Z,12.60
2022-12-25T14:16:44.934Z,12.49
2022-12-25T14:19:31.340Z,12.38
2022-12-25T14:22:11.402Z,12.36
2022-12-25T14:24:40.707Z,12.22
2022-12-25T14:27:22.218Z,12.28
2022-12-25T14:29:53.604Z,12.09
2022-12-25T14:32:24.203Z,12.15
2022-12-25T14:34:55.864Z,11.97
2022-12-25T14:37:28.376Z,12.03
2022-12-25T14:40:05.339Z,11.77
2022-12-25T14:42:38.085Z,11.56
2022-12-25T14:45:30.080Z,11.46
2022-12-25T14:48:04.348Z,11.25
2022-12-25T14:50:37.482Z,10.97
2022-12-25T14:53:06.592Z,10.92
2022-12-25T14:55:34.449Z,10.91
2022-12-25T14:58:05.532Z,10.64
2022-12-25T15:00:40.430Z,10.67
2022-12-25T15:03:21.082Z,10.40
2022-12-25T15:05:58.985Z,9.99
2022-12-25T15:08:27.204Z,9.92
2022-12-25T15:11:01.851Z,9.98
2022-12-25T15:13:31.686Z,9.81
2022-12-25T15:16:05.959Z,9.68
2022-12-25T15:18:38.521Z,9.55
2022-12-25T15:21:06.229Z,9.38
2022-12-25T15:23:33.964Z,9.26
2022-12-25T15:26:01.289Z,9.12
2022-12-25T15:28:28.598Z,9.11
2022-12-25T15:30:56.526Z,9.09
2022-12-25T15:33:24.011Z,8.85
2022-12-25T15:35:51.381Z,8.80
2022-12-25T15:38:19.024Z,8.73
2022-12-25T15:40:47.353Z,8.54
2022-12-25T15:43:39.479Z,8.34
2022-12-25T15:46:03.221Z,8.59
2022-12-25T15:48:30.533Z,8.38
2022-12-25T15:50:57.924Z,8.13
2022-12-25T15:53:27.108Z,8.10
2022-12-25T15:55:54.572Z,7.91
2022-12-25T15:58:21.933Z,7.84
2022-12-25T16:00:50.910Z,7.79
2022-12-25T16:03:18.602Z,7.85
2022-12-25T16:05:45.951Z,7.72
2022-12-25T16:08:13.290Z,7.52
2022-12-25T16:10:40.956Z,7.51
2022-12-25T16:13:08.308Z,7.47
2022-12-25T16:15:37.892Z,7.33
2022-12-25T16:18:06.724Z,7.24
2022-12-25T16:20:35.741Z,7.05
2022-12-25T16:23:03.170Z,7.22
2022-12-25T16:25:31.047Z,7.28
2022-12-25T16:27:58.408Z,7.12
2022-12-25T16:30:25.773Z,7.08
2022-12-25T16:32:54.227Z,6.77
2022-12-25T16:35:21.644Z,6.89
2022-12-25T16:37:49.768Z,6.81
2022-12-25T16:40:18.209Z,6.92
2022-12-25T16:42:45.795Z,6.84
2022-12-25T16:45:13.687Z,6.63
2022-12-25T16:47:41.550Z,6.53
2022-12-25T16:50:09.825Z,6.36
2022-12-25T16:52:37.180Z,6.44
2022-12-25T16:55:05.234Z,6.19
2022-12-25T16:57:32.904Z,6.13
2022-12-25T17:00:00.226Z,6.17
2022-12-25T17:02:28.031Z,6.29
2022-12-25T17:04:55.415Z,6.24
2022-12-25T17:07:22.713Z,6.05
2022-12-25T17:09:50.754Z,5.70
2022-12-25T17:12:18.908Z,5.56
2022-12-25T17:14:46.403Z,5.47
2022-12-25T17:17:14.251Z,5.55
2022-12-25T17:19:41.923Z,5.38
2022-12-25T17:22:09.387Z,5.35
2022-12-25T17:24:37.730Z,5.35
2022-12-25T17:27:08.730Z,5.33
2022-12-25T17:29:40.179Z,5.28
2022-12-25T17:32:09.193Z,5.11
2022-12-25T17:34:37.680Z,5.20
2022-12-25T17:37:05.465Z,5.07
2022-12-25T17:39:33.138Z,5.13
2022-12-25T17:42:01.756Z,5.08
2022-12-25T17:44:29.012Z,4.98
2022-12-25T17:46:56.828Z,4.88
2022-12-25T17:49:24.514Z,4.66
2022-12-25T17:51:53.624Z,4.86
2022-12-25T17:54:21.062Z,4.78
2022-12-25T17:56:49.556Z,4.71
2022-12-25T17:59:23.332Z,4.66
2022-12-25T18:01:51.021Z,4.55
2022-12-25T18:04:18.820Z,4.51
2022-12-25T18:06:46.302Z,4.59
2022-12-25T18:09:14.092Z,4.38
2022-12-25T18:11:44.077Z,4.32
2022-12-25T18:14:13.912Z,4.17
2022-12-25T18:16:43.493Z,4.13
2022-12-25T18:19:12.639Z,4.00
2022-12-25T18:21:40.048Z,4.13
2022-12-25T18:24:08.683Z,4.04
2022-12-25T18:26:36.543Z,4.10
2022-12-25T18:29:04.567Z,4.19
2022-12-25T18:31:32.348Z,4.08
2022-12-25T18:34:00.231Z,4.01
2022-12-25T18:36:28.818Z,3.98
2022-12-25T18:38:58.120Z,3.88
2022-12-25T18:41:25.830Z,3.87
2022-12-25T18:43:55.495Z,3.79
2022-12-25T18:46:25.858Z,3.83
2022-12-25T18:48:55.948Z,3.59
2022-12-25T18:51:24.490Z,3.68
2022-12-25T18:53:51.888Z,3.66
2022-12-25T18:56:20.101Z,3.66
2022-12-25T18:58:48.512Z,3.68
2022-12-25T19:01:22.735Z,3.67
2022-12-25T19:03:51.479Z,3.72
2022-12-25T19:06:21.629Z,3.66
2022-12-25T19:08:50.466Z,3.62
2022-12-25T19:11:21.874Z,3.73
2022-12-25T19:13:49.879Z,3.42
2022-12-25T19:16:19.008Z,3.43
2022-12-25T19:18:46.861Z,3.32
2022-12-25T19:21:14.249Z,3.21
2022-12-25T19:23:41.868Z,3.14
2022-12-25T19:26:10.688Z,3.16
2022-12-25T19:28:39.582Z,3.34
2022-12-25T19:31:08.964Z,3.36
2022-12-25T19:33:40.575Z,3.29
2022-12-25T19:36:11.890Z,3.01
2022-12-25T19:38:39.474Z,2.99
2022-12-25T19:41:16.502Z,3.00
2022-12-25T19:43:47.809Z,3.09
2022-12-25T19:46:21.283Z,3.22
2022-12-25T19:48:49.049Z,3.15
2022-12-25T19:51:26.415Z,3.09
2022-12-25T19:53:56.547Z,2.88
2022-12-25T19:56:25.274Z,2.86
2022-12-25T19:58:52.991Z,2.87
2022-12-25T20:01:23.107Z,2.88
2022-12-25T20:03:51.307Z,2.94
2022-12-25T20:06:26.116Z,2.77
2022-12-25T20:08:56.693Z,2.78
2022-12-25T20:11:26.876Z,2.87
2022-12-25T20:13:55.910Z,2.79
2022-12-25T20:16:24.344Z,2.73
2022-12-25T20:18:52.029Z,2.75
2022-12-25T20:21:22.098Z,2.69
2022-12-25T20:23:51.948Z,2.57
2022-12-25T20:26:23.363Z,2.48
2022-12-25T20:28:51.475Z,2.46
2022-12-25T20:31:27.478Z,2.42
2022-12-25T20:33:57.117Z,2.33
2022-12-25T20:36:24.826Z,2.28
2022-12-25T20:38:53.179Z,2.32
2022-12-25T20:41:27.420Z,2.17
2022-12-25T20:43:56.345Z,2.15
2022-12-25T20:46:25.340Z,2.13
2022-12-25T20:48:53.259Z,2.25
2022-12-25T20:51:26.407Z,2.35
2022-12-25T20:53:55.276Z,2.21
2022-12-25T20:56:24.891Z,2.07
2022-12-25T20:58:58.608Z,2.15
2022-12-25T21:01:28.249Z,2.15
2022-12-25T21:03:56.274Z,2.28
2022-12-25T21:06:24.115Z,2.16
2022-12-25T21:08:51.909Z,2.08
2022-12-25T21:11:22.335Z,2.10
2022-12-25T21:13:50.473Z,1.98
2022-12-25T21:16:21.782Z,1.81
2022-12-25T21:18:50.981Z,1.77
2022-12-25T21:21:19.538Z,1.83
2022-12-25T21:23:47.672Z,1.85
2022-12-25T21:26:20.127Z,1.70
2022-12-25T21:28:49.363Z,1.45
2022-12-25T21:31:16.945Z,1.63
2022-12-25T21:33:54.627Z,1.58
2022-12-25T21:36:30.776Z,1.57
2022-12-25T21:39:07.701Z,1.26
2022-12-25T21:41:38.017Z,1.26
2022-12-25T21:44:06.289Z,1.21
2022-12-25T21:46:33.856Z,1.34
2022-12-25T21:49:01.831Z,1.32
2022-12-25T21:51:51.727Z,1.22
2022-12-25T21:54:21.782Z,1.16
2022-12-25T21:56:49.487Z,1.33
2022-12-25T21:59:19.477Z,1.43
2022-12-25T22:01:49.915Z,1.44
2022-12-25T22:04:19.546Z,1.24
2022-12-25T22:07:06.021Z,1.39
2022-12-25T22:09:34.029Z,1.41
2022-12-25T22:12:26.034Z,1.47
2022-12-25T22:15:02.960Z,1.64
2022-12-25T22:17:58.254Z,1.60
2022-12-25T22:20:30.228Z,1.55
2022-12-25T22:22:58.215Z,1.35
2022-12-25T22:25:26.537Z,1.25
2022-12-25T22:27:54.484Z,1.34
2022-12-25T22:30:28.688Z,1.49
2022-12-25T22:32:56.860Z,1.49
2022-12-25T22:35:24.394Z,1.41
2022-12-25T22:37:53.660Z,1.32
2022-12-25T22:40:21.318Z,1.23
2022-12-25T22:42:48.664Z,1.24
2022-12-25T22:45:16.248Z,1.21
2022-12-25T22:47:43.928Z,1.11
2022-12-25T22:50:13.076Z,1.17
2022-12-25T22:52:40.884Z,1.23
2022-12-25T22:55:10.114Z,1.26
2022-12-25T22:57:37.598Z,1.20
2022-12-25T23:00:06.546Z,1.06
2022-12-25T23:02:35.549Z,1.10
2022-12-25T23:05:03.653Z,1.09
2022-12-25T23:07:31.090Z,1.08
2022-12-25T23:09:59.558Z,1.18
2022-12-25T23:12:46.353Z,0.92
2022-12-25T23:15:14.107Z,0.99
2022-12-25T23:18:00.079Z,1.17
2022-12-25T23:20:46.201Z,1.21
2022-12-25T23:23:34.560Z,1.21
2022-12-25T23:26:09.698Z,0.98
2022-12-25T23:28:57.487Z,0.94
2022-12-25T23:31:31.093Z,1.04
2022-12-25T23:33:58.827Z,0.67
2022-12-25T23:36:27.415Z,0.82
2022-12-25T23:38:54.832Z,0.64
2022-12-25T23:41:22.155Z,0.70
2022-12-25T23:43:49.987Z,0.63
2022-12-25T23:46:17.522Z,0.64
2022-12-25T23:48:45.074Z,0.76
2022-12-25T23:51:12.776Z,0.84
2022-12-25T23:53:40.149Z,0.82
2022-12-25T23:56:07.558Z,0.71
2022-12-25T23:58:35.174Z,0.76
